sensor_id;sensor_type;location;lat;lon;timestamp;temperature;humidity
20610;DHT22;10463;52.378;9.688;2022-12-29T00:01:37;22.50;27.10
20610;DHT22;10463;52.378;9.688;2022-12-29T00:04:22;22.50;27.20
20610;DHT22;10463;52.378;9.688;2022-12-29T00:07:07;22.50;27.10
20610;DHT22;10463;52.378;9.688;2022-12-29T00:09:52;22.50;27.10
20610;DHT22;10463;52.378;9.688;2022-12-29T00:12:38;22.50;27.10
20610;DHT22;10463;52.378;9.688;2022-12-29T00:15:42;22.50;27.70
20610;DHT22;10463;52.378;9.688;2022-12-29T00:18:27;22.50;27.20
20610;DHT22;10463;52.378;9.688;2022-12-29T00:21:14;22.50;27.20
20610;DHT22;10463;52.378;9.688;2022-12-29T00:24:21;22.50;27.20
20610;DHT22;10463;52.378;9.688;2022-12-29T00:27:26;22.50;27.20
20610;DHT22;10463;52.378;9.688;2022-12-29T00:30:32;22.50;27.20
20610;DHT22;10463;52.378;9.688;2022-12-29T00:33:35;22.50;27.20
20610;DHT22;10463;52.378;9.688;2022-12-29T00:36:40;22.50;27.20
20610;DHT22;10463;52.378;9.688;2022-12-29T00:39:26;22.50;27.20
20610;DHT22;10463;52.378;9.688;2022-12-29T00:42:30;22.50;27.30
20610;DHT22;10463;52.378;9.688;2022-12-29T00:45:35;22.50;27.30
20610;DHT22;10463;52.378;9.688;2022-12-29T00:48:19;22.50;27.30
20610;DHT22;10463;52.378;9.688;2022-12-29T00:51:24;22.60;27.40
20610;DHT22;10463;52.378;9.688;2022-12-29T00:54:09;22.60;27.40
20610;DHT22;10463;52.378;9.688;2022-12-29T00:56:55;22.60;27.90
20610;DHT22;10463;52.378;9.688;2022-12-29T00:59:40;22.60;27.40
20610;DHT22;10463;52.378;9.688;2022-12-29T01:02:28;22.60;27.40
20610;DHT22;10463;52.378;9.688;2022-12-29T01:05:13;22.60;27.40
20610;DHT22;10463;52.378;9.688;2022-12-29T01:07:58;22.60;27.30
20610;DHT22;10463;52.378;9.688;2022-12-29T01:10:43;22.60;27.30
20610;DHT22;10463;52.378;9.688;2022-12-29T01:13:28;22.60;27.30
20610;DHT22;10463;52.378;9.688;2022-12-29T01:16:12;22.60;27.30
20610;DHT22;10463;52.378;9.688;2022-12-29T01:18:58;22.60;27.30
20610;DHT22;10463;52.378;9.688;2022-12-29T01:21:44;22.60;27.30
20610;DHT22;10463;52.378;9.688;2022-12-29T01:24:28;22.70;27.30
20610;DHT22;10463;52.378;9.688;2022-12-29T01:27:13;22.60;27.30
20610;DHT22;10463;52.378;9.688;2022-12-29T01:30:00;22.70;27.30
20610;DHT22;10463;52.378;9.688;2022-12-29T01:32:45;22.70;27.40
20610;DHT22;10463;52.378;9.688;2022-12-29T01:35:32;22.70;27.40
20610;DHT22;10463;52.378;9.688;2022-12-29T01:38:17;22.70;27.40
20610;DHT22;10463;52.378;9.688;2022-12-29T01:41:02;22.70;27.40
20610;DHT22;10463;52.378;9.688;2022-12-29T01:43:49;22.70;27.40
20610;DHT22;10463;52.378;9.688;2022-12-29T01:46:37;22.70;27.40
20610;DHT22;10463;52.378;9.688;2022-12-29T01:49:26;22.70;27.40
20610;DHT22;10463;52.378;9.688;2022-12-29T01:52:14;22.70;27.40
20610;DHT22;10463;52.378;9.688;2022-12-29T01:55:02;22.60;27.30
20610;DHT22;10463;52.378;9.688;2022-12-29T01:57:51;22.60;27.20
20610;DHT22;10463;52.378;9.688;2022-12-29T02:00:37;22.60;27.20
20610;DHT22;10463;52.378;9.688;2022-12-29T02:03:24;22.50;27.20
20610;DHT22;10463;52.378;9.688;2022-12-29T02:06:15;22.50;27.20
20610;DHT22;10463;52.378;9.688;2022-12-29T02:09:02;22.40;27.10
20610;DHT22;10463;52.378;9.688;2022-12-29T02:11:47;22.40;27.20
20610;DHT22;10463;52.378;9.688;2022-12-29T02:14:34;22.30;27.20
20610;DHT22;10463;52.378;9.688;2022-12-29T02:17:27;22.30;27.20
20610;DHT22;10463;52.378;9.688;2022-12-29T02:20:56;22.30;27.30
20610;DHT22;10463;52.378;9.688;2022-12-29T02:24:19;22.20;27.30
20610;DHT22;10463;52.378;9.688;2022-12-29T02:27:48;22.20;27.30
20610;DHT22;10463;52.378;9.688;2022-12-29T02:30:45;22.10;27.30
20610;DHT22;10463;52.378;9.688;2022-12-29T02:33:50;22.10;27.40
20610;DHT22;10463;52.378;9.688;2022-12-29T02:36:43;22.00;27.30
20610;DHT22;10463;52.378;9.688;2022-12-29T02:39:38;22.00;27.40
20610;DHT22;10463;52.378;9.688;2022-12-29T02:42:30;22.00;27.40
20610;DHT22;10463;52.378;9.688;2022-12-29T02:45:22;22.00;27.50
20610;DHT22;10463;52.378;9.688;2022-12-29T02:48:18;21.90;27.50
20610;DHT22;10463;52.378;9.688;2022-12-29T02:51:10;21.90;27.60
20610;DHT22;10463;52.378;9.688;2022-12-29T02:53:59;21.90;27.60
20610;DHT22;10463;52.378;9.688;2022-12-29T02:57:10;21.90;28.10
20610;DHT22;10463;52.378;9.688;2022-12-29T03:00:04;21.80;27.80
20610;DHT22;10463;52.378;9.688;2022-12-29T03:03:21;21.80;27.90
20610;DHT22;10463;52.378;9.688;2022-12-29T03:06:27;21.80;27.90
20610;DHT22;10463;52.378;9.688;2022-12-29T03:09:25;21.80;27.90
20610;DHT22;10463;52.378;9.688;2022-12-29T03:12:18;21.70;27.80
20610;DHT22;10463;52.378;9.688;2022-12-29T03:15:12;21.70;27.80
20610;DHT22;10463;52.378;9.688;2022-12-29T03:18:23;21.70;27.80
20610;DHT22;10463;52.378;9.688;2022-12-29T03:21:14;21.70;27.80
20610;DHT22;10463;52.378;9.688;2022-12-29T03:24:01;21.60;27.80
20610;DHT22;10463;52.378;9.688;2022-12-29T03:26:47;21.60;27.90
20610;DHT22;10463;52.378;9.688;2022-12-29T03:29:39;21.60;27.90
20610;DHT22;10463;52.378;9.688;2022-12-29T03:32:28;21.60;28.00
20610;DHT22;10463;52.378;9.688;2022-12-29T03:35:19;21.60;28.00
20610;DHT22;10463;52.378;9.688;2022-12-29T03:38:09;21.60;28.60
20610;DHT22;10463;52.378;9.688;2022-12-29T03:40:58;21.60;28.10
20610;DHT22;10463;52.378;9.688;2022-12-29T03:43:46;21.60;28.20
20610;DHT22;10463;52.378;9.688;2022-12-29T03:46:31;21.50;28.10
20610;DHT22;10463;52.378;9.688;2022-12-29T03:49:16;21.50;28.20
20610;DHT22;10463;52.378;9.688;2022-12-29T03:52:03;21.50;28.20
20610;DHT22;10463;52.378;9.688;2022-12-29T03:54:50;21.50;28.20
20610;DHT22;10463;52.378;9.688;2022-12-29T03:57:34;21.50;28.70
20610;DHT22;10463;52.378;9.688;2022-12-29T04:00:23;21.50;28.20
20610;DHT22;10463;52.378;9.688;2022-12-29T04:03:08;21.40;28.20
20610;DHT22;10463;52.378;9.688;2022-12-29T04:05:53;21.40;28.30
20610;DHT22;10463;52.378;9.688;2022-12-29T04:08:40;21.40;28.30
20610;DHT22;10463;52.378;9.688;2022-12-29T04:11:25;21.30;28.30
20610;DHT22;10463;52.378;9.688;2022-12-29T04:14:12;21.30;28.40
20610;DHT22;10463;52.378;9.688;2022-12-29T04:16:57;21.30;28.40
20610;DHT22;10463;52.378;9.688;2022-12-29T04:19:42;21.30;28.50
20610;DHT22;10463;52.378;9.688;2022-12-29T04:22:27;21.20;28.50
20610;DHT22;10463;52.378;9.688;2022-12-29T04:25:14;21.20;28.50
20610;DHT22;10463;52.378;9.688;2022-12-29T04:28:00;21.20;28.60
20610;DHT22;10463;52.378;9.688;2022-12-29T04:31:14;21.20;28.70
20610;DHT22;10463;52.378;9.688;2022-12-29T04:34:01;21.20;28.70
20610;DHT22;10463;52.378;9.688;2022-12-29T04:36:47;21.20;28.70
20610;DHT22;10463;52.378;9.688;2022-12-29T04:39:32;21.20;28.80
20610;DHT22;10463;52.378;9.688;2022-12-29T04:42:19;21.20;28.80
20610;DHT22;10463;52.378;9.688;2022-12-29T04:45:06;21.20;28.90
20610;DHT22;10463;52.378;9.688;2022-12-29T04:48:30;21.10;28.80
20610;DHT22;10463;52.378;9.688;2022-12-29T04:51:50;21.10;29.30
20610;DHT22;10463;52.378;9.688;2022-12-29T04:54:36;21.10;28.90
20610;DHT22;10463;52.378;9.688;2022-12-29T04:57:29;21.10;28.90
20610;DHT22;10463;52.378;9.688;2022-12-29T05:00:17;21.10;28.90
20610;DHT22;10463;52.378;9.688;2022-12-29T05:03:02;21.10;28.90
20610;DHT22;10463;52.378;9.688;2022-12-29T05:05:47;21.10;29.00
20610;DHT22;10463;52.378;9.688;2022-12-29T05:08:32;21.10;29.00
20610;DHT22;10463;52.378;9.688;2022-12-29T05:11:19;21.10;29.50
20610;DHT22;10463;52.378;9.688;2022-12-29T05:14:07;21.10;28.90
20610;DHT22;10463;52.378;9.688;2022-12-29T05:16:53;21.10;28.90
20610;DHT22;10463;52.378;9.688;2022-12-29T05:19:38;21.10;28.90
20610;DHT22;10463;52.378;9.688;2022-12-29T05:22:24;21.10;28.90
20610;DHT22;10463;52.378;9.688;2022-12-29T05:25:09;21.10;28.90
20610;DHT22;10463;52.378;9.688;2022-12-29T05:28:07;21.10;28.90
20610;DHT22;10463;52.378;9.688;2022-12-29T05:31:06;21.10;28.90
20610;DHT22;10463;52.378;9.688;2022-12-29T05:33:50;21.00;28.80
20610;DHT22;10463;52.378;9.688;2022-12-29T05:36:35;21.00;28.80
20610;DHT22;10463;52.378;9.688;2022-12-29T05:39:21;21.00;28.80
20610;DHT22;10463;52.378;9.688;2022-12-29T05:42:12;21.00;28.90
20610;DHT22;10463;52.378;9.688;2022-12-29T05:45:23;21.00;28.90
20610;DHT22;10463;52.378;9.688;2022-12-29T05:48:25;21.00;28.90
20610;DHT22;10463;52.378;9.688;2022-12-29T05:51:42;20.90;29.40
20610;DHT22;10463;52.378;9.688;2022-12-29T05:54:27;20.90;29.00
20610;DHT22;10463;52.378;9.688;2022-12-29T05:57:12;20.90;29.10
20610;DHT22;10463;52.378;9.688;2022-12-29T05:59:58;20.90;29.20
20610;DHT22;10463;52.378;9.688;2022-12-29T06:02:43;20.90;29.30
20610;DHT22;10463;52.378;9.688;2022-12-29T06:05:30;20.90;29.30
20610;DHT22;10463;52.378;9.688;2022-12-29T06:08:15;20.80;29.20
20610;DHT22;10463;52.378;9.688;2022-12-29T06:11:00;20.80;29.20
20610;DHT22;10463;52.378;9.688;2022-12-29T06:13:45;20.90;29.30
20610;DHT22;10463;52.378;9.688;2022-12-29T06:16:30;20.80;29.30
20610;DHT22;10463;52.378;9.688;2022-12-29T06:19:18;20.90;29.40
20610;DHT22;10463;52.378;9.688;2022-12-29T06:22:05;20.90;29.50
20610;DHT22;10463;52.378;9.688;2022-12-29T06:24:53;20.90;29.50
20610;DHT22;10463;52.378;9.688;2022-12-29T06:27:38;20.90;29.60
20610;DHT22;10463;52.378;9.688;2022-12-29T06:30:23;20.90;29.70
20610;DHT22;10463;52.378;9.688;2022-12-29T06:33:08;20.90;29.70
20610;DHT22;10463;52.378;9.688;2022-12-29T06:35:53;20.90;29.70
20610;DHT22;10463;52.378;9.688;2022-12-29T06:38:39;20.90;29.70
20610;DHT22;10463;52.378;9.688;2022-12-29T06:41:24;20.90;30.20
20610;DHT22;10463;52.378;9.688;2022-12-29T06:44:27;20.90;29.80
20610;DHT22;10463;52.378;9.688;2022-12-29T06:47:19;20.90;29.80
20610;DHT22;10463;52.378;9.688;2022-12-29T06:50:04;20.90;29.80
20610;DHT22;10463;52.378;9.688;2022-12-29T06:52:50;20.90;29.90
20610;DHT22;10463;52.378;9.688;2022-12-29T06:55:36;20.90;29.90
20610;DHT22;10463;52.378;9.688;2022-12-29T06:58:21;20.90;29.90
20610;DHT22;10463;52.378;9.688;2022-12-29T07:01:06;20.90;29.90
20610;DHT22;10463;52.378;9.688;2022-12-29T07:03:51;20.90;29.90
20610;DHT22;10463;52.378;9.688;2022-12-29T07:06:36;20.90;29.90
20610;DHT22;10463;52.378;9.688;2022-12-29T07:09:21;20.90;29.90
20610;DHT22;10463;52.378;9.688;2022-12-29T07:12:07;20.90;29.80
20610;DHT22;10463;52.378;9.688;2022-12-29T07:14:52;20.90;29.80
20610;DHT22;10463;52.378;9.688;2022-12-29T07:17:37;20.90;29.80
20610;DHT22;10463;52.378;9.688;2022-12-29T07:20:22;20.90;29.80
20610;DHT22;10463;52.378;9.688;2022-12-29T07:23:07;20.90;29.80
20610;DHT22;10463;52.378;9.688;2022-12-29T07:26:00;20.80;29.70
20610;DHT22;10463;52.378;9.688;2022-12-29T07:28:46;20.80;29.70
20610;DHT22;10463;52.378;9.688;2022-12-29T07:31:30;20.90;29.80
20610;DHT22;10463;52.378;9.688;2022-12-29T07:34:15;20.90;29.70
20610;DHT22;10463;52.378;9.688;2022-12-29T07:37:00;20.90;29.70
20610;DHT22;10463;52.378;9.688;2022-12-29T07:39:44;20.90;29.70
20610;DHT22;10463;52.378;9.688;2022-12-29T07:42:30;21.00;29.80
20610;DHT22;10463;52.378;9.688;2022-12-29T07:45:18;21.00;29.70
20610;DHT22;10463;52.378;9.688;2022-12-29T07:48:10;21.00;29.70
20610;DHT22;10463;52.378;9.688;2022-12-29T07:50:55;21.10;29.80
20610;DHT22;10463;52.378;9.688;2022-12-29T07:53:40;21.10;29.70
20610;DHT22;10463;52.378;9.688;2022-12-29T07:56:24;21.20;29.70
20610;DHT22;10463;52.378;9.688;2022-12-29T07:59:09;21.20;29.70
20610;DHT22;10463;52.378;9.688;2022-12-29T08:01:55;21.20;29.60
20610;DHT22;10463;52.378;9.688;2022-12-29T08:04:39;21.20;29.60
20610;DHT22;10463;52.378;9.688;2022-12-29T08:07:24;21.30;30.10
20610;DHT22;10463;52.378;9.688;2022-12-29T08:10:12;21.30;29.60
20610;DHT22;10463;52.378;9.688;2022-12-29T08:12:58;21.30;29.50
20610;DHT22;10463;52.378;9.688;2022-12-29T08:15:42;21.40;29.60
20610;DHT22;10463;52.378;9.688;2022-12-29T08:18:28;21.40;29.60
20610;DHT22;10463;52.378;9.688;2022-12-29T08:21:13;21.40;29.50
20610;DHT22;10463;52.378;9.688;2022-12-29T08:23:58;21.50;29.60
20610;DHT22;10463;52.378;9.688;2022-12-29T08:26:43;21.50;29.60
20610;DHT22;10463;52.378;9.688;2022-12-29T08:29:27;21.50;29.60
20610;DHT22;10463;52.378;9.688;2022-12-29T08:32:12;21.50;29.60
20610;DHT22;10463;52.378;9.688;2022-12-29T08:34:59;21.60;29.60
20610;DHT22;10463;52.378;9.688;2022-12-29T08:37:43;21.60;29.50
20610;DHT22;10463;52.378;9.688;2022-12-29T08:40:28;21.60;29.50
20610;DHT22;10463;52.378;9.688;2022-12-29T08:43:13;21.70;29.50
20610;DHT22;10463;52.378;9.688;2022-12-29T08:45:58;21.70;29.50
20610;DHT22;10463;52.378;9.688;2022-12-29T08:48:43;21.70;29.40
20610;DHT22;10463;52.378;9.688;2022-12-29T08:51:29;21.70;29.40
20610;DHT22;10463;52.378;9.688;2022-12-29T08:54:14;21.80;29.40
20610;DHT22;10463;52.378;9.688;2022-12-29T08:56:59;21.80;29.30
20610;DHT22;10463;52.378;9.688;2022-12-29T08:59:52;21.80;29.30
20610;DHT22;10463;52.378;9.688;2022-12-29T09:02:37;21.80;29.20
20610;DHT22;10463;52.378;9.688;2022-12-29T09:05:22;21.80;29.20
20610;DHT22;10463;52.378;9.688;2022-12-29T09:08:08;21.90;29.20
20610;DHT22;10463;52.378;9.688;2022-12-29T09:10:52;21.90;29.20
20610;DHT22;10463;52.378;9.688;2022-12-29T09:13:38;21.90;29.20
20610;DHT22;10463;52.378;9.688;2022-12-29T09:16:23;21.90;29.70
20610;DHT22;10463;52.378;9.688;2022-12-29T09:19:08;21.90;29.10
20610;DHT22;10463;52.378;9.688;2022-12-29T09:21:53;21.90;29.10
20610;DHT22;10463;52.378;9.688;2022-12-29T09:24:39;21.90;29.10
20610;DHT22;10463;52.378;9.688;2022-12-29T09:27:24;21.90;29.00
20610;DHT22;10463;52.378;9.688;2022-12-29T09:30:11;22.00;29.10
20610;DHT22;10463;52.378;9.688;2022-12-29T09:32:56;22.00;29.00
20610;DHT22;10463;52.378;9.688;2022-12-29T09:35:42;22.00;29.00
20610;DHT22;10463;52.378;9.688;2022-12-29T09:38:28;22.00;29.00
20610;DHT22;10463;52.378;9.688;2022-12-29T09:41:19;22.00;29.00
20610;DHT22;10463;52.378;9.688;2022-12-29T09:44:14;22.00;29.00
20610;DHT22;10463;52.378;9.688;2022-12-29T09:47:00;22.10;29.00
20610;DHT22;10463;52.378;9.688;2022-12-29T09:49:48;22.10;28.90
20610;DHT22;10463;52.378;9.688;2022-12-29T09:52:41;22.10;28.90
20610;DHT22;10463;52.378;9.688;2022-12-29T09:55:34;22.10;28.90
20610;DHT22;10463;52.378;9.688;2022-12-29T09:58:26;22.10;28.90
20610;DHT22;10463;52.378;9.688;2022-12-29T10:01:21;22.10;28.90
20610;DHT22;10463;52.378;9.688;2022-12-29T10:04:09;22.10;28.90
20610;DHT22;10463;52.378;9.688;2022-12-29T10:06:57;22.10;28.80
20610;DHT22;10463;52.378;9.688;2022-12-29T10:09:53;22.10;28.80
20610;DHT22;10463;52.378;9.688;2022-12-29T10:13:00;22.20;28.80
20610;DHT22;10463;52.378;9.688;2022-12-29T10:15:57;22.20;29.30
20610;DHT22;10463;52.378;9.688;2022-12-29T10:22:22;22.20;28.80
20610;DHT22;10463;52.378;9.688;2022-12-29T10:25:20;22.20;28.80
20610;DHT22;10463;52.378;9.688;2022-12-29T10:28:15;22.20;28.80
20610;DHT22;10463;52.378;9.688;2022-12-29T10:31:06;22.20;28.80
20610;DHT22;10463;52.378;9.688;2022-12-29T10:33:57;22.20;28.80
20610;DHT22;10463;52.378;9.688;2022-12-29T10:36:45;22.20;28.80
20610;DHT22;10463;52.378;9.688;2022-12-29T10:39:38;22.30;28.90
20610;DHT22;10463;52.378;9.688;2022-12-29T10:42:28;22.30;28.90
20610;DHT22;10463;52.378;9.688;2022-12-29T10:45:16;22.30;28.90
20610;DHT22;10463;52.378;9.688;2022-12-29T10:48:19;22.30;28.90
20610;DHT22;10463;52.378;9.688;2022-12-29T10:51:07;22.40;29.10
20610;DHT22;10463;52.378;9.688;2022-12-29T10:53:57;22.40;29.10
20610;DHT22;10463;52.378;9.688;2022-12-29T10:56:47;22.40;29.10
20610;DHT22;10463;52.378;9.688;2022-12-29T10:59:36;22.40;29.00
20610;DHT22;10463;52.378;9.688;2022-12-29T11:05:57;22.50;28.80
20610;DHT22;10463;52.378;9.688;2022-12-29T11:08:52;22.50;28.80
20610;DHT22;10463;52.378;9.688;2022-12-29T11:11:37;22.60;28.80
20610;DHT22;10463;52.378;9.688;2022-12-29T11:14:28;22.60;28.70
20610;DHT22;10463;52.378;9.688;2022-12-29T11:17:16;22.60;28.60
20610;DHT22;10463;52.378;9.688;2022-12-29T11:20:30;22.60;28.70
20610;DHT22;10463;52.378;9.688;2022-12-29T11:23:29;22.60;28.80
20610;DHT22;10463;52.378;9.688;2022-12-29T11:26:20;22.60;28.80
20610;DHT22;10463;52.378;9.688;2022-12-29T11:29:24;22.70;28.80
20610;DHT22;10463;52.378;9.688;2022-12-29T11:32:12;22.70;28.80
20610;DHT22;10463;52.378;9.688;2022-12-29T11:35:04;22.80;28.70
20610;DHT22;10463;52.378;9.688;2022-12-29T11:37:55;22.80;28.60
20610;DHT22;10463;52.378;9.688;2022-12-29T11:40:43;22.80;28.50
20610;DHT22;10463;52.378;9.688;2022-12-29T11:43:31;22.80;28.50
20610;DHT22;10463;52.378;9.688;2022-12-29T11:46:20;22.80;28.50
20610;DHT22;10463;52.378;9.688;2022-12-29T11:49:06;22.90;28.60
20610;DHT22;10463;52.378;9.688;2022-12-29T11:51:53;22.80;28.50
20610;DHT22;10463;52.378;9.688;2022-12-29T11:54:42;22.80;28.50
20610;DHT22;10463;52.378;9.688;2022-12-29T11:57:29;22.90;28.60
20610;DHT22;10463;52.378;9.688;2022-12-29T12:00:20;22.90;28.60
20610;DHT22;10463;52.378;9.688;2022-12-29T12:03:13;22.90;28.60
20610;DHT22;10463;52.378;9.688;2022-12-29T12:06:02;22.90;28.60
20610;DHT22;10463;52.378;9.688;2022-12-29T12:08:53;22.90;28.50
20610;DHT22;10463;52.378;9.688;2022-12-29T12:11:40;22.90;28.50
20610;DHT22;10463;52.378;9.688;2022-12-29T12:14:34;22.90;28.50
20610;DHT22;10463;52.378;9.688;2022-12-29T12:17:54;22.90;28.50
20610;DHT22;10463;52.378;9.688;2022-12-29T12:20:45;22.90;28.40
20610;DHT22;10463;52.378;9.688;2022-12-29T12:23:44;22.90;28.40
20610;DHT22;10463;52.378;9.688;2022-12-29T12:26:37;22.90;28.30
20610;DHT22;10463;52.378;9.688;2022-12-29T12:29:34;23.00;28.40
20610;DHT22;10463;52.378;9.688;2022-12-29T12:32:25;23.00;28.30
20610;DHT22;10463;52.378;9.688;2022-12-29T12:35:13;23.00;28.30
20610;DHT22;10463;52.378;9.688;2022-12-29T12:38:15;23.00;28.30
20610;DHT22;10463;52.378;9.688;2022-12-29T12:41:09;23.00;28.20
20610;DHT22;10463;52.378;9.688;2022-12-29T12:44:00;23.00;28.10
20610;DHT22;10463;52.378;9.688;2022-12-29T12:47:17;23.00;28.10
20610;DHT22;10463;52.378;9.688;2022-12-29T12:50:22;23.00;28.00
20610;DHT22;10463;52.378;9.688;2022-12-29T12:53:29;23.00;28.00
20610;DHT22;10463;52.378;9.688;2022-12-29T12:56:45;23.00;27.90
20610;DHT22;10463;52.378;9.688;2022-12-29T12:59:48;23.00;27.90
20610;DHT22;10463;52.378;9.688;2022-12-29T13:02:47;23.00;27.80
20610;DHT22;10463;52.378;9.688;2022-12-29T13:06:01;23.00;27.90
20610;DHT22;10463;52.378;9.688;2022-12-29T13:09:14;23.00;27.80
20610;DHT22;10463;52.378;9.688;2022-12-29T13:12:13;23.00;27.80
20610;DHT22;10463;52.378;9.688;2022-12-29T13:15:12;23.00;27.80
20610;DHT22;10463;52.378;9.688;2022-12-29T13:18:06;23.00;27.80
20610;DHT22;10463;52.378;9.688;2022-12-29T13:21:03;23.00;27.70
20610;DHT22;10463;52.378;9.688;2022-12-29T13:23:58;23.00;27.70
20610;DHT22;10463;52.378;9.688;2022-12-29T13:26:50;23.00;27.70
20610;DHT22;10463;52.378;9.688;2022-12-29T13:29:44;23.00;27.70
20610;DHT22;10463;52.378;9.688;2022-12-29T13:32:46;23.00;27.70
20610;DHT22;10463;52.378;9.688;2022-12-29T13:35:52;23.00;27.70
20610;DHT22;10463;52.378;9.688;2022-12-29T13:38:43;23.00;27.70
20610;DHT22;10463;52.378;9.688;2022-12-29T13:41:34;23.00;27.60
20610;DHT22;10463;52.378;9.688;2022-12-29T13:44:24;22.90;27.60
20610;DHT22;10463;52.378;9.688;2022-12-29T13:47:21;22.90;27.50
20610;DHT22;10463;52.378;9.688;2022-12-29T13:50:14;23.00;28.10
20610;DHT22;10463;52.378;9.688;2022-12-29T13:53:09;23.00;27.60
20610;DHT22;10463;52.378;9.688;2022-12-29T13:56:05;23.00;27.60
20610;DHT22;10463;52.378;9.688;2022-12-29T13:58:58;23.00;27.60
20610;DHT22;10463;52.378;9.688;2022-12-29T14:01:54;22.90;27.50
20610;DHT22;10463;52.378;9.688;2022-12-29T14:04:57;23.00;28.10
20610;DHT22;10463;52.378;9.688;2022-12-29T14:07:43;23.00;27.50
20610;DHT22;10463;52.378;9.688;2022-12-29T14:10:33;23.00;27.50
20610;DHT22;10463;52.378;9.688;2022-12-29T14:13:22;22.90;27.50
20610;DHT22;10463;52.378;9.688;2022-12-29T14:16:12;22.90;27.50
20610;DHT22;10463;52.378;9.688;2022-12-29T14:19:13;22.90;27.50
20610;DHT22;10463;52.378;9.688;2022-12-29T14:22:02;22.90;27.50
20610;DHT22;10463;52.378;9.688;2022-12-29T14:24:48;22.90;27.50
20610;DHT22;10463;52.378;9.688;2022-12-29T14:27:57;22.90;27.50
20610;DHT22;10463;52.378;9.688;2022-12-29T14:30:50;22.90;27.40
20610;DHT22;10463;52.378;9.688;2022-12-29T14:33:36;22.90;27.40
20610;DHT22;10463;52.378;9.688;2022-12-29T14:36:26;22.90;27.40
20610;DHT22;10463;52.378;9.688;2022-12-29T14:39:32;22.90;27.40
20610;DHT22;10463;52.378;9.688;2022-12-29T14:42:20;22.90;27.90
20610;DHT22;10463;52.378;9.688;2022-12-29T14:45:27;22.90;27.40
20610;DHT22;10463;52.378;9.688;2022-12-29T14:48:37;22.90;27.40
20610;DHT22;10463;52.378;9.688;2022-12-29T14:51:33;22.90;27.40
20610;DHT22;10463;52.378;9.688;2022-12-29T14:54:49;22.90;27.40
20610;DHT22;10463;52.378;9.688;2022-12-29T14:57:38;22.90;27.40
20610;DHT22;10463;52.378;9.688;2022-12-29T15:00:30;22.90;27.40
20610;DHT22;10463;52.378;9.688;2022-12-29T15:03:20;22.90;27.40
20610;DHT22;10463;52.378;9.688;2022-12-29T15:06:07;22.90;27.40
20610;DHT22;10463;52.378;9.688;2022-12-29T15:09:03;22.90;27.40
20610;DHT22;10463;52.378;9.688;2022-12-29T15:11:53;22.90;27.40
20610;DHT22;10463;52.378;9.688;2022-12-29T15:14:50;22.90;27.30
20610;DHT22;10463;52.378;9.688;2022-12-29T15:17:36;22.90;27.30
20610;DHT22;10463;52.378;9.688;2022-12-29T15:20:27;22.90;27.30
20610;DHT22;10463;52.378;9.688;2022-12-29T15:23:13;22.90;27.30
20610;DHT22;10463;52.378;9.688;2022-12-29T15:26:04;22.80;27.20
20610;DHT22;10463;52.378;9.688;2022-12-29T15:28:51;22.90;27.40
20610;DHT22;10463;52.378;9.688;2022-12-29T15:31:46;22.90;27.30
20610;DHT22;10463;52.378;9.688;2022-12-29T15:34:33;22.90;27.30
20610;DHT22;10463;52.378;9.688;2022-12-29T15:37:22;22.90;27.30
20610;DHT22;10463;52.378;9.688;2022-12-29T15:40:24;22.90;27.30
20610;DHT22;10463;52.378;9.688;2022-12-29T15:43:30;22.80;27.20
20610;DHT22;10463;52.378;9.688;2022-12-29T15:46:19;22.90;27.30
20610;DHT22;10463;52.378;9.688;2022-12-29T15:49:06;22.90;27.30
20610;DHT22;10463;52.378;9.688;2022-12-29T15:51:54;22.80;27.20
20610;DHT22;10463;52.378;9.688;2022-12-29T15:54:42;22.90;27.30
20610;DHT22;10463;52.378;9.688;2022-12-29T15:57:29;22.80;27.20
20610;DHT22;10463;52.378;9.688;2022-12-29T16:00:24;22.90;27.30
20610;DHT22;10463;52.378;9.688;2022-12-29T16:03:13;22.90;27.30
20610;DHT22;10463;52.378;9.688;2022-12-29T16:06:09;22.80;27.20
20610;DHT22;10463;52.378;9.688;2022-12-29T16:09:02;22.80;27.20
20610;DHT22;10463;52.378;9.688;2022-12-29T16:11:52;22.80;27.20
20610;DHT22;10463;52.378;9.688;2022-12-29T16:14:45;22.90;27.30
20610;DHT22;10463;52.378;9.688;2022-12-29T16:17:47;22.90;27.20
20610;DHT22;10463;52.378;9.688;2022-12-29T16:20:42;22.90;27.20
20610;DHT22;10463;52.378;9.688;2022-12-29T16:23:29;22.80;27.20
20610;DHT22;10463;52.378;9.688;2022-12-29T16:26:17;22.80;27.10
20610;DHT22;10463;52.378;9.688;2022-12-29T16:29:07;22.80;27.10
20610;DHT22;10463;52.378;9.688;2022-12-29T16:31:55;22.80;27.10
20610;DHT22;10463;52.378;9.688;2022-12-29T16:35:12;22.80;27.10
20610;DHT22;10463;52.378;9.688;2022-12-29T16:38:13;22.80;27.20
20610;DHT22;10463;52.378;9.688;2022-12-29T16:41:00;22.80;27.10
20610;DHT22;10463;52.378;9.688;2022-12-29T16:44:12;22.80;27.10
20610;DHT22;10463;52.378;9.688;2022-12-29T16:47:19;22.80;27.20
20610;DHT22;10463;52.378;9.688;2022-12-29T16:50:12;22.80;27.20
20610;DHT22;10463;52.378;9.688;2022-12-29T16:52:57;22.80;27.20
20610;DHT22;10463;52.378;9.688;2022-12-29T16:55:46;22.80;27.10
20610;DHT22;10463;52.378;9.688;2022-12-29T16:58:32;22.80;27.20
20610;DHT22;10463;52.378;9.688;2022-12-29T17:01:19;22.80;27.20
20610;DHT22;10463;52.378;9.688;2022-12-29T17:04:08;22.80;27.20
20610;DHT22;10463;52.378;9.688;2022-12-29T17:06:54;22.80;27.10
20610;DHT22;10463;52.378;9.688;2022-12-29T17:09:39;22.80;27.10
20610;DHT22;10463;52.378;9.688;2022-12-29T17:12:26;22.80;27.10
20610;DHT22;10463;52.378;9.688;2022-12-29T17:15:17;22.80;27.10
20610;DHT22;10463;52.378;9.688;2022-12-29T17:18:07;22.80;27.10
20610;DHT22;10463;52.378;9.688;2022-12-29T17:20:54;22.80;27.20
20610;DHT22;10463;52.378;9.688;2022-12-29T17:23:39;22.80;27.10
20610;DHT22;10463;52.378;9.688;2022-12-29T17:26:23;22.80;27.70
20610;DHT22;10463;52.378;9.688;2022-12-29T17:29:12;22.80;27.10
20610;DHT22;10463;52.378;9.688;2022-12-29T17:32:03;22.80;27.70
20610;DHT22;10463;52.378;9.688;2022-12-29T17:34:50;22.80;27.10
20610;DHT22;10463;52.378;9.688;2022-12-29T17:37:36;22.80;27.10
20610;DHT22;10463;52.378;9.688;2022-12-29T17:40:26;22.80;27.10
20610;DHT22;10463;52.378;9.688;2022-12-29T17:43:13;22.80;27.10
20610;DHT22;10463;52.378;9.688;2022-12-29T17:45:58;22.80;27.10
20610;DHT22;10463;52.378;9.688;2022-12-29T17:48:43;22.80;27.60
20610;DHT22;10463;52.378;9.688;2022-12-29T17:51:29;22.80;27.10
20610;DHT22;10463;52.378;9.688;2022-12-29T17:54:20;22.80;27.10
20610;DHT22;10463;52.378;9.688;2022-12-29T17:57:08;22.80;27.10
20610;DHT22;10463;52.378;9.688;2022-12-29T17:59:55;22.80;27.10
20610;DHT22;10463;52.378;9.688;2022-12-29T18:02:40;22.80;27.10
20610;DHT22;10463;52.378;9.688;2022-12-29T18:05:26;22.80;27.10
20610;DHT22;10463;52.378;9.688;2022-12-29T18:08:13;22.80;27.10